Date,TemperatureHighF,TemperatureAvgF,TemperatureLowF,DewpointHighF,DewpointAvgF,DewpointLowF,HumidityHigh,HumidityAvg,HumidityLow,PressureMaxIn,PressureMinIn,WindSpeedMaxMPH,WindSpeedAvgMPH,GustSpeedMaxMPH,PrecipitationSumIn
2013-9-1,90,79,72,78,73,70,97,83,62,29.69,29.57,1,0,8,0.01
2013-9-2,89,79,71,76,72,69,97,81,56,29.67,29.58,1,0,5,0.01
2013-9-3,86,77,71,77,72,70,95,87,69,29.74,29.58,1,0,5,0.01
2013-9-4,82,73,67,70,65,60,97,77,59,29.91,29.74,1,0,4,0.00
2013-9-5,87,75,64,67,64,58,96,72,40,29.89,29.82,1,0,4,0.00
2013-9-6,80,71,61,65,61,55,86,71,53,30.00,29.88,1,0,4,0.00
2013-9-7,81,70,57,66,61,56,96,77,55,29.94,29.77,0,0,4,0.00
2013-9-8,86,75,64,70,65,59,95,73,45,29.80,29.70,0,0,3,0.00
2013-9-9,83,76,71,73,70,67,94,83,69,29.96,29.79,1,0,6,0.00
2013-9-10,89,79,70,74,71,68,96,79,57,30.03,29.93,1,0,5,0.00
2013-9-11,91,80,71,73,69,66,91,71,45,29.99,29.86,1,0,8,0.00
2013-9-12,90,80,70,75,71,67,92,76,56,29.86,29.58,1,0,7,0.00
2013-9-13,82,74,64,69,64,56,88,71,49,29.72,29.54,1,0,6,0.00
2013-9-14,71,62,56,56,51,47,83,70,48,29.89,29.72,2,0,5,0.00
2013-9-15,79,73,68,60,59,54,77,62,44,29.97,29.92,0,0,4,0.00
2013-9-16,83,71,63,70,64,58,95,78,49,30.01,29.86,1,0,5,0.00
2013-9-17,72,63,54,58,54,50,95,76,50,30.16,30.01,1,0,5,0.00
2013-9-18,72,59,46,55,50,44,96,76,49,30.13,29.98,0,0,4,0.00
2013-9-19,74,65,54,61,57,52,94,77,57,30.01,29.89,0,0,5,0.00
2013-9-20,78,70,63,67,63,59,94,80,62,29.90,29.77,1,0,3,0.00
2013-9-21,73,68,64,69,66,62,98,94,88,29.78,29.52,1,0,9,0.21
2013-9-22,75,67,58,66,60,55,98,81,53,29.71,29.53,2,0,5,0.10
2013-9-23,69,60,53,56,52,50,90,76,57,29.89,29.71,1,0,5,0.00
2013-9-24,74,63,53,60,54,50,93,75,56,29.92,29.75,0,0,4,0.00
2013-9-25,73,63,52,62,56,50,96,80,59,29.78,29.68,0,0,2,0.00
2013-9-26,75,66,58,60,58,53,94,77,47,29.86,29.69,1,0,5,0.00
2013-9-27,71,62,52,62,56,50,97,82,60,30.01,29.86,1,0,7,0.00
2013-9-28,70,60,50,59,55,49,97,83,65,30.07,29.99,1,0,5,0.00
2013-9-29,72,62,51,60,56,50,100,81,55,29.99,29.84,1,0,3,0.00
2013-9-30,74,62,52,62,55,50,98,79,52,29.91,29.80,0,0,3,0.00